createdAt,value
2019-05-03T00:01:21.813Z,37.00
2019-05-03T00:03:51.857Z,37.00
2019-05-03T00:06:22.643Z,37.00
2019-05-03T00:08:52.058Z,37.10
2019-05-03T00:11:24.542Z,37.10
2019-05-03T00:14:06.295Z,37.10
2019-05-03T00:16:32.601Z,37.10
2019-05-03T00:19:12.739Z,37.10
2019-05-03T00:21:41.922Z,37.00
2019-05-03T00:24:11.916Z,37.20
2019-05-03T00:26:39.277Z,37.10
2019-05-03T00:29:06.386Z,37.20
2019-05-03T00:31:33.470Z,37.10
2019-05-03T00:37:03.808Z,36.90
2019-05-03T00:39:32.454Z,36.80
2019-05-03T00:44:52.503Z,36.70
2019-05-03T00:47:32.886Z,36.60
2019-05-03T00:50:02.621Z,36.60
2019-05-03T00:52:39.608Z,36.80
2019-05-03T00:58:11.720Z,36.80
2019-05-03T01:00:38.815Z,36.80
2019-05-03T01:03:07.793Z,36.80
2019-05-03T01:05:34.960Z,36.80
2019-05-03T01:08:02.197Z,36.80
2019-05-03T01:10:35.734Z,36.70
2019-05-03T01:15:37.267Z,36.70
2019-05-03T01:20:55.217Z,36.70
2019-05-03T01:23:25.542Z,36.60
2019-05-03T01:25:55.561Z,36.60
2019-05-03T01:30:56.413Z,36.60
2019-05-03T01:36:17.951Z,36.60
2019-05-03T01:38:47.228Z,36.70
2019-05-03T01:41:15.731Z,36.60
2019-05-03T01:43:44.727Z,36.60
2019-05-03T01:46:12.090Z,36.60
2019-05-03T01:51:37.923Z,36.60
2019-05-03T01:54:05.342Z,36.60
2019-05-03T01:56:46.007Z,36.60
2019-05-03T01:59:12.245Z,36.60
2019-05-03T02:01:42.292Z,36.60
2019-05-03T02:04:09.439Z,36.60
2019-05-03T02:06:36.763Z,36.60
2019-05-03T02:09:04.050Z,36.60
2019-05-03T02:14:04.623Z,36.60
2019-05-03T02:16:32.525Z,36.60
2019-05-03T02:18:59.714Z,36.60
2019-05-03T02:21:27.181Z,36.60
2019-05-03T02:23:54.426Z,36.60
2019-05-03T02:31:38.563Z,36.60
2019-05-03T02:34:07.512Z,36.60
2019-05-03T02:36:42.546Z,36.60
2019-05-03T02:39:13.881Z,36.60
2019-05-03T02:41:59.744Z,36.60
2019-05-03T02:44:26.679Z,36.60
2019-05-03T02:46:56.045Z,36.60
2019-05-03T02:49:21.943Z,36.60
2019-05-03T02:51:49.221Z,36.60
2019-05-03T02:57:06.356Z,36.60
2019-05-03T03:02:38.308Z,36.60
2019-05-03T03:05:16.458Z,36.60
2019-05-03T03:10:38.258Z,37.20
2019-05-03T03:13:05.987Z,36.60
2019-05-03T03:15:55.343Z,36.60
2019-05-03T03:18:36.154Z,36.60
2019-05-03T03:21:05.851Z,36.60
2019-05-03T03:23:35.331Z,36.60
2019-05-03T03:31:48.354Z,36.60
2019-05-03T03:39:40.305Z,36.70
2019-05-03T03:45:01.643Z,36.80
2019-05-03T03:47:28.893Z,36.70
2019-05-03T03:50:15.047Z,36.80
2019-05-03T03:52:41.525Z,36.80
2019-05-03T03:55:08.879Z,36.80
2019-05-03T03:57:36.101Z,36.80
2019-05-03T04:00:05.444Z,36.80
2019-05-03T04:02:35.127Z,36.80
2019-05-03T04:05:01.485Z,36.80
2019-05-03T04:07:28.827Z,36.80
2019-05-03T04:09:56.315Z,36.80
2019-05-03T04:15:07.682Z,36.90
2019-05-03T04:17:47.852Z,36.80
2019-05-03T04:23:05.122Z,36.70
2019-05-03T04:25:32.457Z,36.80
2019-05-03T04:31:05.994Z,36.70
2019-05-03T04:33:45.141Z,36.70
2019-05-03T04:36:12.442Z,36.60
2019-05-03T04:41:50.094Z,36.70
2019-05-03T04:47:10.628Z,36.60
2019-05-03T04:49:37.775Z,36.50
2019-05-03T04:52:08.153Z,36.60
2019-05-03T04:58:00.720Z,36.60
2019-05-03T05:00:32.299Z,37.00
2019-05-03T05:03:05.861Z,37.20
2019-05-03T05:05:36.123Z,37.00
2019-05-03T05:08:05.865Z,37.30
2019-05-03T05:10:36.257Z,37.30
2019-05-03T05:13:05.434Z,37.10
2019-05-03T05:18:12.209Z,37.40
2019-05-03T05:20:39.599Z,37.30
2019-05-03T05:23:10.150Z,37.10
2019-05-03T05:28:39.488Z,37.20
2019-05-03T05:31:06.681Z,37.50
2019-05-03T05:33:35.339Z,37.20
2019-05-03T05:41:35.204Z,36.80
2019-05-03T05:46:48.807Z,37.30
2019-05-03T05:49:18.667Z,36.90
2019-05-03T05:51:46.013Z,36.80
2019-05-03T05:54:14.381Z,36.90
2019-05-03T05:56:54.702Z,36.90
2019-05-03T05:59:27.149Z,36.90
2019-05-03T06:05:06.693Z,36.90
2019-05-03T06:07:35.212Z,37.00
2019-05-03T06:10:06.866Z,37.10
2019-05-03T06:12:35.814Z,37.10
2019-05-03T06:28:36.066Z,37.10
2019-05-03T06:31:04.760Z,37.80
2019-05-03T06:33:32.221Z,37.80
2019-05-03T06:36:01.975Z,37.20
2019-05-03T06:38:29.221Z,37.40
2019-05-03T06:40:56.470Z,37.10
2019-05-03T06:43:24.952Z,37.20
2019-05-03T06:45:54.668Z,37.10
2019-05-03T06:48:22.361Z,37.10
2019-05-03T06:53:50.688Z,37.20
2019-05-03T06:56:19.315Z,37.20
2019-05-03T06:58:47.190Z,37.20
2019-05-03T07:01:16.107Z,37.20
2019-05-03T07:03:44.744Z,37.20
2019-05-03T07:06:15.021Z,37.20
2019-05-03T07:12:01.215Z,37.00
2019-05-03T07:14:30.579Z,37.10
2019-05-03T07:17:06.289Z,37.00
2019-05-03T07:22:45.202Z,37.00
2019-05-03T07:25:34.344Z,37.00
2019-05-03T07:28:04.432Z,36.90
2019-05-03T07:30:38.879Z,36.90
2019-05-03T07:33:18.317Z,37.20
2019-05-03T07:35:45.647Z,36.90
2019-05-03T07:38:22.123Z,36.90
2019-05-03T07:40:54.823Z,37.00
2019-05-03T07:43:36.199Z,37.00
2019-05-03T07:46:05.733Z,37.10
2019-05-03T07:48:54.666Z,37.10
2019-05-03T07:51:29.868Z,37.20
2019-05-03T07:53:57.557Z,37.00
2019-05-03T07:56:26.522Z,37.00
2019-05-03T07:59:16.611Z,37.00
2019-05-03T08:01:27.070Z,37.00
2019-05-03T08:04:37.332Z,37.00
2019-05-03T08:06:54.938Z,37.20
2019-05-03T08:12:09.237Z,37.00
2019-05-03T08:14:36.574Z,37.00
2019-05-03T08:17:05.070Z,37.40
2019-05-03T08:25:09.894Z,37.80
2019-05-03T08:27:37.456Z,37.80
2019-05-03T08:30:07.538Z,37.60
2019-05-03T08:32:59.181Z,38.20
2019-05-03T08:35:15.940Z,37.60
2019-05-03T08:37:45.244Z,37.50
2019-05-03T08:43:01.963Z,37.00
2019-05-03T08:48:19.952Z,36.90
2019-05-03T08:50:48.049Z,36.90
2019-05-03T08:53:19.944Z,36.90
2019-05-03T08:55:55.258Z,36.90
2019-05-03T08:58:19.059Z,36.90
2019-05-03T09:03:40.156Z,37.00
2019-05-03T09:06:15.258Z,36.90
2019-05-03T09:08:39.513Z,36.90
2019-05-03T09:11:15.561Z,36.90
2019-05-03T09:13:55.586Z,37.00
2019-05-03T09:19:01.542Z,37.00
2019-05-03T09:21:28.861Z,37.00
2019-05-03T09:23:56.412Z,37.00
2019-05-03T09:29:14.815Z,37.00
2019-05-03T09:31:55.404Z,36.90
2019-05-03T09:34:38.515Z,37.60
2019-05-03T09:37:08.091Z,37.50
2019-05-03T09:39:35.452Z,36.90
2019-05-03T09:42:10.478Z,36.90
2019-05-03T09:50:24.716Z,36.90
2019-05-03T10:04:25.749Z,36.90
2019-05-03T10:07:15.151Z,37.00
2019-05-03T10:09:36.594Z,36.90
2019-05-03T10:12:05.547Z,36.90
2019-05-03T10:14:45.818Z,36.90
2019-05-03T10:20:10.831Z,36.80
2019-05-03T10:22:37.979Z,36.70
2019-05-03T10:25:07.555Z,36.80
2019-05-03T10:30:22.014Z,36.80
2019-05-03T10:32:51.068Z,36.80
2019-05-03T10:35:21.129Z,36.90
2019-05-03T10:37:54.803Z,36.90
2019-05-03T10:40:21.515Z,37.40
2019-05-03T10:48:40.147Z,37.50
2019-05-03T10:51:24.862Z,37.20
2019-05-03T10:54:19.939Z,37.50
2019-05-03T10:59:56.871Z,37.50
2019-05-03T11:02:25.649Z,37.40
2019-05-03T11:07:42.590Z,37.60
2019-05-03T11:10:09.818Z,37.60
2019-05-03T11:12:54.784Z,37.70
2019-05-03T11:15:22.431Z,37.70
2019-05-03T11:20:38.077Z,37.70
2019-05-03T11:23:05.853Z,37.60
2019-05-03T11:25:34.729Z,37.70
2019-05-03T11:28:02.037Z,37.80
2019-05-03T11:30:29.435Z,37.80
2019-05-03T11:32:56.596Z,37.80
2019-05-03T11:35:45.912Z,37.90
2019-05-03T11:38:14.970Z,37.90
2019-05-03T11:40:42.494Z,37.90
2019-05-03T11:43:15.269Z,37.90
2019-05-03T11:45:40.441Z,37.90
2019-05-03T11:51:15.219Z,37.90
2019-05-03T11:53:45.060Z,38.00
2019-05-03T11:56:12.337Z,38.00
2019-05-03T11:58:39.744Z,37.90
2019-05-03T12:01:16.004Z,38.00
2019-05-03T12:03:40.070Z,37.90
2019-05-03T12:06:12.243Z,37.70
2019-05-03T12:08:36.460Z,37.80
2019-05-03T12:11:05.745Z,37.80
2019-05-03T12:13:34.548Z,37.80
2019-05-03T12:16:02.265Z,37.80
2019-05-03T12:18:44.839Z,37.70
2019-05-03T12:21:02.799Z,37.90
2019-05-03T12:23:32.881Z,37.70
2019-05-03T12:29:01.631Z,37.70
2019-05-03T12:39:58.299Z,37.50
2019-05-03T12:42:35.511Z,37.60
2019-05-03T12:45:05.897Z,37.70
2019-05-03T12:48:04.799Z,37.50
2019-05-03T12:50:27.188Z,37.50
2019-05-03T12:52:56.222Z,37.50
2019-05-03T12:55:24.745Z,37.60
2019-05-03T13:00:56.047Z,37.40
2019-05-03T13:03:24.617Z,37.50
2019-05-03T13:05:52.796Z,37.50
2019-05-03T13:08:19.957Z,37.50
2019-05-03T13:10:49.262Z,37.50
2019-05-03T13:13:18.061Z,37.50
2019-05-03T13:16:16.269Z,37.60
2019-05-03T13:18:35.541Z,37.60
2019-05-03T13:21:05.780Z,37.50
2019-05-03T13:29:30.148Z,37.60
2019-05-03T13:31:58.107Z,37.60
2019-05-03T13:34:16.230Z,37.60
2019-05-03T13:36:45.489Z,37.60
2019-05-03T13:39:14.750Z,37.60
2019-05-03T13:44:28.601Z,37.70
2019-05-03T13:46:55.819Z,37.70
2019-05-03T13:49:23.188Z,37.70
2019-05-03T13:51:50.367Z,37.60
2019-05-03T13:54:18.780Z,37.60
2019-05-03T13:56:49.088Z,37.50
2019-05-03T13:59:19.733Z,37.50
2019-05-03T14:01:45.331Z,37.60
2019-05-03T14:04:15.534Z,37.50
2019-05-03T14:06:47.149Z,37.50
2019-05-03T14:09:25.172Z,37.40
2019-05-03T14:14:36.122Z,37.40
2019-05-03T14:17:05.181Z,37.40
2019-05-03T14:19:32.416Z,37.40
2019-05-03T14:22:01.278Z,37.50
2019-05-03T14:24:28.705Z,37.40
2019-05-03T14:27:00.254Z,37.30
2019-05-03T14:29:45.519Z,37.40
2019-05-03T14:32:25.867Z,37.40
2019-05-03T14:34:56.165Z,37.40
2019-05-03T14:37:19.708Z,37.40
2019-05-03T14:39:46.978Z,37.40
2019-05-03T14:42:15.306Z,37.40
2019-05-03T14:47:20.216Z,37.40
2019-05-03T14:49:50.434Z,37.30
2019-05-03T14:52:17.656Z,37.40
2019-05-03T14:57:34.982Z,37.40
2019-05-03T15:00:01.593Z,37.30
2019-05-03T15:02:40.193Z,37.30
2019-05-03T15:04:57.514Z,37.30
2019-05-03T15:07:25.561Z,37.30
2019-05-03T15:09:56.025Z,37.30
2019-05-03T15:12:25.181Z,37.30
2019-05-03T15:14:54.524Z,37.30
2019-05-03T15:17:21.420Z,37.30
2019-05-03T15:19:48.574Z,37.30
2019-05-03T15:22:15.738Z,37.30
2019-05-03T15:24:54.515Z,37.30
2019-05-03T15:27:20.903Z,37.30
2019-05-03T15:29:48.061Z,37.30
2019-05-03T15:32:18.269Z,37.20
2019-05-03T15:34:45.456Z,37.20
2019-05-03T15:37:14.726Z,37.20
2019-05-03T15:39:46.010Z,37.20
2019-05-03T15:42:10.530Z,37.70
2019-05-03T15:44:37.784Z,37.10
2019-05-03T15:47:09.398Z,37.20
2019-05-03T15:49:36.229Z,37.20
2019-05-03T15:52:04.687Z,37.10
2019-05-03T15:54:49.020Z,37.10
2019-05-03T15:57:19.338Z,37.00
2019-05-03T15:59:46.401Z,37.00
2019-05-03T16:02:15.095Z,37.20
2019-05-03T16:04:44.854Z,37.20
2019-05-03T16:07:12.083Z,37.20
2019-05-03T16:09:44.538Z,37.20
2019-05-03T16:12:11.349Z,37.20
2019-05-03T16:14:38.561Z,37.20
2019-05-03T16:17:05.717Z,37.20
2019-05-03T16:20:09.632Z,37.20
2019-05-03T16:22:14.487Z,37.20
2019-05-03T16:24:41.723Z,37.30
2019-05-03T16:27:21.631Z,37.40
2019-05-03T16:29:48.916Z,37.30
2019-05-03T16:32:16.764Z,37.30
2019-05-03T16:34:44.527Z,37.30
2019-05-03T16:37:14.850Z,37.30
2019-05-03T16:39:42.378Z,37.30
2019-05-03T16:47:38.291Z,37.20
2019-05-03T16:50:06.452Z,37.30
2019-05-03T16:52:42.001Z,37.50
2019-05-03T16:55:09.994Z,38.00
2019-05-03T16:57:37.232Z,37.60
2019-05-03T17:00:06.427Z,37.70
2019-05-03T17:02:56.788Z,37.90
2019-05-03T17:05:46.345Z,38.10
2019-05-03T17:08:12.252Z,37.90
2019-05-03T17:10:39.393Z,38.00
2019-05-03T17:13:14.695Z,37.80
2019-05-03T17:15:48.877Z,37.80
2019-05-03T17:18:17.254Z,37.80
2019-05-03T17:20:45.300Z,38.00
2019-05-03T17:23:24.623Z,37.80
2019-05-03T17:31:06.224Z,37.60
2019-05-03T17:33:31.247Z,37.60
2019-05-03T17:35:58.519Z,37.70
2019-05-03T17:38:31.883Z,37.80
2019-05-03T17:41:15.454Z,37.70
2019-05-03T17:43:58.184Z,37.60
2019-05-03T17:49:10.318Z,37.50
2019-05-03T17:51:49.758Z,37.60
2019-05-03T17:54:29.643Z,37.60
2019-05-03T17:56:56.901Z,37.60
2019-05-03T17:59:28.554Z,38.20
2019-05-03T18:07:32.291Z,37.60
2019-05-03T18:10:05.579Z,37.50
2019-05-03T18:12:34.908Z,37.80
2019-05-03T18:15:16.764Z,38.00
2019-05-03T18:17:44.465Z,38.00
2019-05-03T18:20:09.646Z,37.60
2019-05-03T18:22:46.017Z,37.50
2019-05-03T18:25:16.145Z,37.40
2019-05-03T18:27:46.771Z,37.30
2019-05-03T18:30:30.780Z,37.60
2019-05-03T18:32:57.924Z,37.50
2019-05-03T18:35:25.660Z,37.60
2019-05-03T18:37:54.606Z,37.70
2019-05-03T18:40:21.804Z,37.40
2019-05-03T18:42:49.036Z,37.30
2019-05-03T18:45:16.355Z,37.40
2019-05-03T18:47:45.009Z,37.80
2019-05-03T18:50:12.180Z,37.60
2019-05-03T18:52:39.212Z,37.30
2019-05-03T18:55:06.279Z,37.30
2019-05-03T18:57:33.357Z,37.30
2019-05-03T18:59:59.884Z,37.20
2019-05-03T19:02:26.947Z,37.80
2019-05-03T19:04:54.716Z,37.60
2019-05-03T19:07:21.822Z,37.50
2019-05-03T19:09:49.137Z,37.50
2019-05-03T19:12:16.229Z,37.30
2019-05-03T19:14:43.364Z,37.40
2019-05-03T19:17:10.529Z,37.30
2019-05-03T19:19:37.576Z,37.40
2019-05-03T19:22:05.091Z,37.40
2019-05-03T19:24:35.005Z,37.40
2019-05-03T19:27:01.751Z,37.40
2019-05-03T19:29:28.855Z,37.30
2019-05-03T19:31:56.095Z,37.40
2019-05-03T19:34:24.324Z,38.00
2019-05-03T19:36:51.948Z,37.30
2019-05-03T19:39:19.052Z,37.30
2019-05-03T19:41:46.162Z,37.40
2019-05-03T19:44:14.981Z,37.40
2019-05-03T19:46:44.502Z,37.30
2019-05-03T19:49:11.655Z,38.00
2019-05-03T19:51:39.119Z,37.30
2019-05-03T19:54:06.292Z,37.30
2019-05-03T19:56:33.347Z,37.30
2019-05-03T19:59:00.466Z,37.30
2019-05-03T20:01:27.523Z,37.40
2019-05-03T20:03:54.628Z,37.40
2019-05-03T20:06:21.904Z,37.30
2019-05-03T20:08:49.048Z,37.30
2019-05-03T20:11:16.146Z,37.30
2019-05-03T20:13:45.130Z,37.30
2019-05-03T20:16:12.190Z,37.30
2019-05-03T20:18:39.404Z,37.30
2019-05-03T20:21:06.659Z,37.20
2019-05-03T20:23:33.812Z,37.40
2019-05-03T20:26:00.920Z,37.30
2019-05-03T20:28:28.012Z,37.40
2019-05-03T20:30:55.281Z,37.30
2019-05-03T20:33:24.211Z,37.30
2019-05-03T20:35:53.789Z,37.30
2019-05-03T20:38:20.155Z,37.30
2019-05-03T20:40:47.300Z,37.30
2019-05-03T20:43:14.768Z,37.30
2019-05-03T20:45:41.878Z,37.30
2019-05-03T20:48:08.952Z,37.10
2019-05-03T20:50:36.048Z,37.10
2019-05-03T20:53:05.226Z,37.20
2019-05-03T20:55:31.928Z,37.00
2019-05-03T20:57:59.031Z,37.00
2019-05-03T21:00:26.192Z,37.00
2019-05-03T21:02:56.603Z,37.00
2019-05-03T21:05:29.598Z,37.00
2019-05-03T21:07:51.050Z,37.00
2019-05-03T21:10:18.421Z,36.90
2019-05-03T21:12:45.719Z,36.90
2019-05-03T21:15:12.827Z,37.00
2019-05-03T21:17:39.892Z,37.00
2019-05-03T21:20:07.042Z,37.00
2019-05-03T21:22:35.381Z,37.00
2019-05-03T21:25:02.756Z,37.00
2019-05-03T21:27:29.833Z,37.00
2019-05-03T21:29:56.878Z,37.10
2019-05-03T21:32:25.034Z,37.10
2019-05-03T21:34:52.570Z,37.10
2019-05-03T21:37:19.685Z,37.00
2019-05-03T21:39:46.770Z,37.00
2019-05-03T21:42:15.202Z,37.10
2019-05-03T21:44:42.388Z,37.00
2019-05-03T21:47:09.436Z,37.00
2019-05-03T21:49:36.505Z,37.00
2019-05-03T21:52:04.586Z,37.00
2019-05-03T21:54:51.574Z,37.00
2019-05-03T21:57:18.622Z,37.00
2019-05-03T21:59:45.751Z,37.00
2019-05-03T22:02:12.843Z,37.00
2019-05-03T22:04:39.892Z,37.10
2019-05-03T22:07:06.986Z,37.00
2019-05-03T22:09:34.821Z,37.00
2019-05-03T22:12:02.810Z,37.00
2019-05-03T22:14:29.968Z,37.00
2019-05-03T22:16:57.019Z,36.90
2019-05-03T22:19:25.038Z,37.00
2019-05-03T22:21:52.232Z,36.90
2019-05-03T22:24:19.542Z,36.90
2019-05-03T22:26:46.670Z,37.00
2019-05-03T22:29:14.431Z,37.00
2019-05-03T22:31:42.520Z,37.00
2019-05-03T22:34:09.634Z,36.90
2019-05-03T22:36:36.878Z,36.90
2019-05-03T22:39:04.876Z,37.00
2019-05-03T22:41:32.155Z,37.00
2019-05-03T22:43:59.233Z,36.80
2019-05-03T22:46:26.307Z,36.80
2019-05-03T22:48:55.102Z,36.80
2019-05-03T22:51:22.104Z,36.70
2019-05-03T22:53:49.209Z,36.80
2019-05-03T22:56:16.262Z,36.80
2019-05-03T22:58:43.335Z,36.80
2019-05-03T23:01:10.434Z,36.80
2019-05-03T23:03:37.509Z,36.70
2019-05-03T23:06:05.073Z,36.70
2019-05-03T23:08:34.397Z,36.70
2019-05-03T23:11:01.098Z,36.70
2019-05-03T23:13:28.338Z,36.70
2019-05-03T23:15:55.405Z,36.70
2019-05-03T23:18:24.514Z,36.70
2019-05-03T23:20:51.311Z,36.70
2019-05-03T23:23:18.363Z,36.60
2019-05-03T23:25:45.455Z,36.70
2019-05-03T23:28:14.411Z,36.70
2019-05-03T23:30:41.364Z,36.70
2019-05-03T23:33:08.471Z,36.70
2019-05-03T23:35:35.558Z,36.70
2019-05-03T23:38:04.721Z,36.70
2019-05-03T23:40:31.360Z,36.60
2019-05-03T23:42:58.638Z,36.70
2019-05-03T23:45:25.671Z,36.60
2019-05-03T23:47:52.753Z,36.70
2019-05-03T23:50:19.833Z,36.50
2019-05-03T23:52:46.909Z,36.60
2019-05-03T23:55:14.747Z,36.60
2019-05-03T23:57:41.914Z,36.50
